Shelton, CT (06484)

6:19 AM EST on February 11, 2016 (GMT -0500)
APRSWXNET | | Change Station
CLOSE
Current Station
Personal Weather Station
Location: Shelton, CT
Elevation: 449 ft
Nearby Weather Stations

Elev 449 ft 41.30 °N, 73.15 °W | Updated 33 minutes ago

Overcast
Overcast
22 °F
Feels Like 22 °F
N
3
Wind Variable Wind from West
Gusts 0.0 mph

Today
High -- | Low -- °F
--% Chance of Precip.
Yesterday
High -- | Low -- °F
Precip. -- in
Pressure 29.77 in
Visibility 10.0 miles
Clouds Overcast 8500 ft
Windchill 22 °F
Dew Point 11 °F
Humidity 61%
Rainfall in
Snow Depth Not available.
6:53 AM 5:20 PM
Waxing Crescent, 11% visible
METAR KBDR 111052Z 29016G22KT 10SM OVC085 M04/M14 A2977 RMK AO2 SLP079 T10391139
Pressure 29.77 in
Visibility 10.0 miles
Clouds Overcast 8500 ft
Windchill 22 °F
Dew Point 11 °F
Humidity 61%
Rainfall in
Snow Depth Not available.
6:53 AM 5:20 PM
Waxing Crescent, 11% visible
METAR KBDR 111052Z 29016G22KT 10SM OVC085 M04/M14 A2977 RMK AO2 SLP079 T10391139

10-Day Weather Forecast

Almanac

Astronomy

Feb. 11, 2016 Rise Set
Actual Time
Civil Twilight
Nautical Twilight
Astronomical Twilight
Moon
Length of Visible Light
Length of Day
Tomorrow will be .
, % of the Moon is Illuminated

Today's Extremes

State Highs State Lows

Community

WunderPhotos

Upload Photos

1,892,030 photos uploaded!

WunderBlog® & News

Nearby

Air Quality

  Air Quality AQ Index Pollutant
Not available.

Snow Depth

Station Depth Elevation

Earthquake Activity

City Distance Mag. Time & Date
Minimum magnitude displayed is 2.5.

Coastal Water Temperatures

Place Temperature

Stations

Nearby Weather Stations

Station Location Temp. Windchill Dew Point Humidity Wind Precip. Elev Updated Type
                   

Watches & Warnings

There are currently no watches in effect.